Time;durP1;ratioP1;P1;durP2;ratioP2;P2;SDS_P1;SDS_P2;PMS_P1;PMS_P2;Temp;Humidity;BMP_temperature;BMP_pressure;BME280_temperature;BME280_humidity;BME280_pressure;Samples;Min_cycle;Max_cycle;Signal;HPM_P1;HPM_P2
2022/12/31 00:00:59;;;;;;;17.10;13.80;;;;;;;;;;5079105;28;20207;-81
2022/12/31 00:03:26;;;;;;;20.23;15.77;;;;;;;;;;5094329;28;20261;-81
2022/12/31 00:05:53;;;;;;;19.73;16.33;;;;;;;;;;5106255;28;20626;-81
2022/12/31 00:08:20;;;;;;;21.37;13.90;;;;;;;;;;5092116;28;20196;-81
2022/12/31 00:10:48;;;;;;;17.07;14.27;;;;;;;;;;5056944;28;20666;-82
2022/12/31 00:13:16;;;;;;;15.03;11.93;;;;;;;;;;5091866;28;20204;-81
2022/12/31 00:15:43;;;;;;;15.17;11.53;;;;;;;;;;5091465;28;20219;-80
2022/12/31 00:18:11;;;;;;;17.77;14.73;;;;;;;;;;5091425;28;20227;-80
2022/12/31 00:20:40;;;;;;;15.90;12.07;;;;;;;;;;5091483;28;20196;-80
2022/12/31 00:23:08;;;;;;;16.23;10.80;;;;;;;;;;5091549;28;20657;-80
2022/12/31 00:25:36;;;;;;;17.03;13.33;;;;;;;;;;5077511;28;20256;-81
2022/12/31 00:28:05;;;;;;;17.67;12.63;;;;;;;;;;5091685;28;20288;-79
2022/12/31 00:30:31;;;;;;;15.77;12.40;;;;;;;;;;5099016;28;20227;-80
2022/12/31 00:32:58;;;;;;;14.13;11.73;;;;;;;;;;5111735;28;20207;-80
2022/12/31 00:35:25;;;;;;;13.97;11.40;;;;;;;;;;5103470;28;20208;-81
2022/12/31 00:37:53;;;;;;;17.20;12.33;;;;;;;;;;5087739;28;20223;-80
2022/12/31 00:40:20;;;;;;;15.30;12.07;;;;;;;;;;5111062;28;20195;-81
2022/12/31 00:42:47;;;;;;;13.87;11.77;;;;;;;;;;5093012;28;20268;-81
2022/12/31 00:45:16;;;;;;;18.00;11.67;;;;;;;;;;5103381;28;20204;-80
2022/12/31 00:47:43;;;;;;;15.23;11.87;;;;;;;;;;5106578;28;20702;-80
2022/12/31 00:50:10;;;;;;;15.53;12.57;;;;;;;;;;5093212;28;20633;-80
2022/12/31 00:52:37;;;;;;;15.00;12.90;;;;;;;;;;5080407;28;20212;-80
2022/12/31 00:55:04;;;;;;;15.03;12.27;;;;;;;;;;5088948;28;20227;-80
2022/12/31 00:57:32;;;;;;;17.23;12.73;;;;;;;;;;5110913;28;20234;-80
2022/12/31 00:59:59;;;;;;;14.17;11.73;;;;;;;;;;5092530;28;20264;-80
2022/12/31 01:02:27;;;;;;;15.37;11.60;;;;;;;;;;5110854;28;20203;-81
2022/12/31 01:04:54;;;;;;;19.77;12.60;;;;;;;;;;5111349;28;20287;-80
2022/12/31 01:07:21;;;;;;;17.73;12.60;;;;;;;;;;5092603;28;20203;-81
2022/12/31 01:09:47;;;;;;;19.50;14.40;;;;;;;;;;5111439;28;20640;-80
2022/12/31 01:12:14;;;;;;;16.67;13.90;;;;;;;;;;5110663;28;20682;-80
2022/12/31 01:14:41;;;;;;;17.40;13.57;;;;;;;;;;5111217;28;20204;-80
2022/12/31 01:17:08;;;;;;;15.40;12.03;;;;;;;;;;5111097;28;20579;-80
2022/12/31 01:19:37;;;;;;;17.57;13.67;;;;;;;;;;5110977;28;20234;-80
2022/12/31 01:22:03;;;;;;;14.83;13.17;;;;;;;;;;5110407;28;20196;-81
2022/12/31 01:24:30;;;;;;;13.40;10.90;;;;;;;;;;5097505;28;20200;-80
2022/12/31 01:26:57;;;;;;;11.53;10.33;;;;;;;;;;5104240;28;20204;-81
2022/12/31 01:29:24;;;;;;;14.80;11.70;;;;;;;;;;5103677;28;20651;-80
2022/12/31 01:31:51;;;;;;;14.33;11.07;;;;;;;;;;5110747;28;20195;-83
2022/12/31 01:34:18;;;;;;;14.20;10.27;;;;;;;;;;5110748;28;20199;-80
2022/12/31 01:36:47;;;;;;;12.10;10.10;;;;;;;;;;5092561;28;20191;-80
2022/12/31 01:39:14;;;;;;;13.27;10.03;;;;;;;;;;5110063;28;20219;-81
2022/12/31 01:41:43;;;;;;;13.67;10.20;;;;;;;;;;5102746;28;20199;-81
2022/12/31 01:44:58;;;;;;;12.47;10.47;;;;;;;;;;5105487;28;20203;-80
2022/12/31 01:47:33;;;;;;;13.27;9.70;;;;;;;;;;5028137;28;20202;-82
2022/12/31 01:50:04;;;;;;;11.07;9.77;;;;;;;;;;5095292;28;20199;-81
2022/12/31 01:52:35;;;;;;;12.80;9.70;;;;;;;;;;5097952;28;20200;-81
2022/12/31 01:55:07;;;;;;;11.97;10.37;;;;;;;;;;5090076;28;20208;-81
2022/12/31 01:57:35;;;;;;;10.03;8.33;;;;;;;;;;5090004;28;20210;-81
2022/12/31 02:00:03;;;;;;;12.97;10.10;;;;;;;;;;5100846;28;20207;-81
2022/12/31 02:02:30;;;;;;;11.37;8.53;;;;;;;;;;5109855;28;20739;-81
2022/12/31 02:04:58;;;;;;;12.73;9.10;;;;;;;;;;5092276;28;20231;-81
2022/12/31 02:07:25;;;;;;;13.73;9.17;;;;;;;;;;5083591;28;20199;-81
2022/12/31 02:09:53;;;;;;;12.13;10.63;;;;;;;;;;5110293;28;20207;-81
2022/12/31 02:12:21;;;;;;;13.07;10.00;;;;;;;;;;5093858;28;20207;-81
2022/12/31 02:14:49;;;;;;;13.47;9.67;;;;;;;;;;5093679;28;20683;-80
2022/12/31 02:17:23;;;;;;;10.97;8.67;;;;;;;;;;5094156;28;20196;-80
2022/12/31 02:20:28;;;;;;;10.57;8.53;;;;;;;;;;5081940;28;20220;-80
2022/12/31 02:23:50;;;;;;;11.67;9.07;;;;;;;;;;5107338;28;20207;-81
2022/12/31 02:26:37;;;;;;;13.00;10.20;;;;;;;;;;5087152;28;20712;-81
2022/12/31 02:29:29;;;;;;;13.20;10.13;;;;;;;;;;5114241;28;20233;-80
2022/12/31 02:32:00;;;;;;;10.93;9.80;;;;;;;;;;5080030;28;20204;-81
2022/12/31 02:34:31;;;;;;;10.27;9.03;;;;;;;;;;5093457;28;20674;-81
2022/12/31 02:36:59;;;;;;;10.30;8.27;;;;;;;;;;5102020;28;20570;-81
2022/12/31 02:39:26;;;;;;;13.03;9.20;;;;;;;;;;5113793;28;20231;-81
2022/12/31 02:41:53;;;;;;;10.47;8.47;;;;;;;;;;5096070;28;20196;-80
2022/12/31 02:44:25;;;;;;;11.97;8.93;;;;;;;;;;5113651;28;20203;-80
2022/12/31 02:47:02;;;;;;;12.60;8.67;;;;;;;;;;5103412;28;20211;-80
2022/12/31 02:49:35;;;;;;;11.03;9.80;;;;;;;;;;5111806;28;20196;-80
2022/12/31 02:52:07;;;;;;;10.57;9.40;;;;;;;;;;5100383;28;20208;-80
2022/12/31 02:54:39;;;;;;;11.37;9.37;;;;;;;;;;5093404;28;20211;-80
2022/12/31 02:57:11;;;;;;;13.90;8.93;;;;;;;;;;5093309;28;20209;-80
2022/12/31 03:02:27;;;;;;;13.40;10.60;;;;;;;;;;5093194;28;20211;-80
2022/12/31 03:04:55;;;;;;;14.57;9.63;;;;;;;;;;5093290;28;20236;-80
2022/12/31 03:07:24;;;;;;;11.00;9.87;;;;;;;;;;5093301;28;20197;-80
2022/12/31 03:09:51;;;;;;;11.07;9.63;;;;;;;;;;5104144;28;20211;-80
2022/12/31 03:15:05;;;;;;;18.20;12.27;;;;;;;;;;5112838;28;20210;-80
2022/12/31 03:17:33;;;;;;;11.67;9.90;;;;;;;;;;5113550;28;20199;-80
2022/12/31 03:22:44;;;;;;;11.13;9.87;;;;;;;;;;5111657;28;20210;-80
2022/12/31 03:27:59;;;;;;;14.87;10.67;;;;;;;;;;5113120;28;20291;-81
2022/12/31 03:30:26;;;;;;;15.53;10.93;;;;;;;;;;5112674;28;20199;-80
2022/12/31 03:32:56;;;;;;;12.17;10.20;;;;;;;;;;5113119;28;20234;-80
2022/12/31 03:35:23;;;;;;;12.93;9.97;;;;;;;;;;5112114;28;20656;-80
2022/12/31 03:37:51;;;;;;;10.67;9.40;;;;;;;;;;5110944;28;20199;-80
2022/12/31 03:40:19;;;;;;;13.53;11.10;;;;;;;;;;5091705;28;20231;-80
2022/12/31 03:42:46;;;;;;;30.83;23.63;;;;;;;;;;5082001;28;20199;-81
2022/12/31 03:45:15;;;;;;;18.73;16.23;;;;;;;;;;5113267;28;20211;-82
2022/12/31 03:47:42;;;;;;;17.60;13.37;;;;;;;;;;5106168;28;20209;-81
2022/12/31 03:50:12;;;;;;;23.57;16.80;;;;;;;;;;5092021;28;20208;-81
2022/12/31 03:52:39;;;;;;;21.53;13.73;;;;;;;;;;5112326;28;20211;-82
2022/12/31 03:55:07;;;;;;;20.63;13.37;;;;;;;;;;5094266;28;20701;-82
2022/12/31 03:57:34;;;;;;;15.93;10.53;;;;;;;;;;5099004;28;20206;-82
2022/12/31 04:00:01;;;;;;;13.47;10.60;;;;;;;;;;5087689;28;20705;-82
2022/12/31 04:02:28;;;;;;;12.13;10.23;;;;;;;;;;5089697;28;20208;-82
2022/12/31 04:04:55;;;;;;;16.10;12.83;;;;;;;;;;5074238;28;20953;-81
2022/12/31 04:07:24;;;;;;;16.57;13.50;;;;;;;;;;5091957;28;20203;-82
2022/12/31 04:09:51;;;;;;;15.90;12.63;;;;;;;;;;5088684;28;20200;-83
2022/12/31 04:12:18;;;;;;;12.73;10.63;;;;;;;;;;5062577;28;20223;-83
2022/12/31 04:14:45;;;;;;;16.07;12.00;;;;;;;;;;5099738;28;20200;-83
2022/12/31 04:17:12;;;;;;;15.07;11.80;;;;;;;;;;5060134;28;20695;-83
2022/12/31 04:19:39;;;;;;;12.93;10.73;;;;;;;;;;5086866;28;20239;-82
2022/12/31 04:22:06;;;;;;;15.47;11.90;;;;;;;;;;5091365;28;20208;-83
2022/12/31 04:24:35;;;;;;;12.23;10.93;;;;;;;;;;5097515;28;20207;-83
2022/12/31 04:27:02;;;;;;;12.10;10.53;;;;;;;;;;5112200;28;20257;-83
2022/12/31 04:29:29;;;;;;;13.67;11.10;;;;;;;;;;5060932;28;20238;-83
2022/12/31 04:31:56;;;;;;;13.63;10.13;;;;;;;;;;5071698;28;20285;-83
2022/12/31 04:34:24;;;;;;;21.20;14.83;;;;;;;;;;5083282;28;20201;-82
2022/12/31 04:36:51;;;;;;;22.00;17.03;;;;;;;;;;5053785;28;20193;-81
2022/12/31 04:39:18;;;;;;;19.90;15.67;;;;;;;;;;5073448;28;20724;-82
2022/12/31 04:41:46;;;;;;;17.63;13.33;;;;;;;;;;5073512;28;20254;-83
2022/12/31 04:44:13;;;;;;;15.30;12.00;;;;;;;;;;5091329;28;20196;-81
2022/12/31 04:46:40;;;;;;;15.30;11.23;;;;;;;;;;5091587;28;20199;-87
2022/12/31 04:49:07;;;;;;;15.70;11.83;;;;;;;;;;5072152;28;20215;-81
2022/12/31 04:51:34;;;;;;;14.73;11.37;;;;;;;;;;5079185;28;20205;-82
2022/12/31 04:54:02;;;;;;;13.17;11.50;;;;;;;;;;5091885;28;20233;-82
2022/12/31 04:56:29;;;;;;;25.53;21.90;;;;;;;;;;5086657;28;20567;-82
2022/12/31 04:58:58;;;;;;;20.40;18.10;;;;;;;;;;5105859;28;20598;-82
2022/12/31 05:01:25;;;;;;;18.30;15.13;;;;;;;;;;5085022;28;20272;-82
2022/12/31 05:03:52;;;;;;;13.37;11.20;;;;;;;;;;5105217;28;20285;-82
2022/12/31 05:06:21;;;;;;;12.83;10.60;;;;;;;;;;5082594;28;20304;-82
2022/12/31 05:08:48;;;;;;;27.17;18.20;;;;;;;;;;5094552;28;20212;-81
2022/12/31 05:11:16;;;;;;;20.53;14.13;;;;;;;;;;5091352;28;20200;-82
2022/12/31 05:13:43;;;;;;;15.27;11.37;;;;;;;;;;5108071;28;20203;-81
2022/12/31 05:16:13;;;;;;;14.50;10.57;;;;;;;;;;5111113;28;20297;-82
2022/12/31 05:18:40;;;;;;;77.53;43.97;;;;;;;;;;5093542;28;20204;-82
2022/12/31 05:21:07;;;;;;;75.47;52.37;;;;;;;;;;5090664;28;20283;-82
2022/12/31 05:23:35;;;;;;;76.87;52.73;;;;;;;;;;5077118;28;20208;-82
2022/12/31 05:26:02;;;;;;;36.60;25.33;;;;;;;;;;5071246;28;20201;-82
2022/12/31 05:28:29;;;;;;;25.13;19.83;;;;;;;;;;5093793;28;20729;-82
2022/12/31 05:30:57;;;;;;;25.23;17.13;;;;;;;;;;5099480;28;20278;-82
2022/12/31 05:33:25;;;;;;;28.17;20.47;;;;;;;;;;5091903;28;20582;-82
2022/12/31 05:35:53;;;;;;;30.40;20.23;;;;;;;;;;5099106;28;20207;-81
2022/12/31 05:38:20;;;;;;;194.20;96.87;;;;;;;;;;5080498;28;20216;-82
2022/12/31 05:40:47;;;;;;;167.13;89.07;;;;;;;;;;5083445;28;20702;-82
2022/12/31 05:43:14;;;;;;;111.47;62.93;;;;;;;;;;5110667;28;20613;-82
2022/12/31 05:45:41;;;;;;;42.17;25.47;;;;;;;;;;5111319;28;20210;-82
2022/12/31 05:48:08;;;;;;;24.53;15.07;;;;;;;;;;5090813;28;20573;-82
2022/12/31 05:50:36;;;;;;;12.37;10.57;;;;;;;;;;5107506;28;20198;-83
2022/12/31 05:53:03;;;;;;;10.57;8.03;;;;;;;;;;5087816;28;20195;-82
2022/12/31 05:55:30;;;;;;;11.63;8.67;;;;;;;;;;5104748;28;20264;-82
2022/12/31 05:57:56;;;;;;;9.90;8.50;;;;;;;;;;5089728;28;20200;-83
2022/12/31 06:00:24;;;;;;;52.23;30.83;;;;;;;;;;5079666;28;20220;-82
2022/12/31 06:02:51;;;;;;;27.57;18.73;;;;;;;;;;5070809;28;20215;-82
2022/12/31 06:05:18;;;;;;;108.03;59.73;;;;;;;;;;5096840;28;20260;-82
2022/12/31 06:07:47;;;;;;;49.53;29.97;;;;;;;;;;5103595;28;20216;-82
2022/12/31 06:10:14;;;;;;;40.23;25.57;;;;;;;;;;5094358;28;20200;-82
2022/12/31 06:12:41;;;;;;;35.37;24.20;;;;;;;;;;5077042;28;20208;-82
2022/12/31 06:15:09;;;;;;;73.53;47.10;;;;;;;;;;5076380;28;20262;-82
2022/12/31 06:17:36;;;;;;;77.13;46.80;;;;;;;;;;5097927;28;20207;-83
2022/12/31 06:20:02;;;;;;;32.80;23.10;;;;;;;;;;5101220;28;20299;-83
2022/12/31 06:22:29;;;;;;;17.57;13.40;;;;;;;;;;5102366;28;20211;-82
2022/12/31 06:24:58;;;;;;;17.07;14.37;;;;;;;;;;5113627;28;20257;-83
2022/12/31 06:27:25;;;;;;;145.83;93.93;;;;;;;;;;5100261;28;20215;-83
2022/12/31 06:29:52;;;;;;;133.03;87.60;;;;;;;;;;5102846;28;20193;-81
2022/12/31 06:32:19;;;;;;;58.17;36.73;;;;;;;;;;5085788;28;20212;-81
2022/12/31 06:34:46;;;;;;;44.23;30.17;;;;;;;;;;5093143;28;20197;-82
2022/12/31 06:37:13;;;;;;;19.53;15.50;;;;;;;;;;5106167;28;20207;-82
2022/12/31 06:39:40;;;;;;;13.70;10.30;;;;;;;;;;5089367;28;20213;-81
2022/12/31 06:42:08;;;;;;;11.47;8.33;;;;;;;;;;5067120;28;20683;-82
2022/12/31 06:44:38;;;;;;;10.27;8.73;;;;;;;;;;5081780;28;20640;-82
2022/12/31 06:47:05;;;;;;;10.70;8.30;;;;;;;;;;5084672;28;20287;-82
2022/12/31 06:49:32;;;;;;;9.27;7.50;;;;;;;;;;5080946;28;20206;-81
2022/12/31 06:51:59;;;;;;;10.10;7.27;;;;;;;;;;5091195;28;20200;-82
2022/12/31 06:54:28;;;;;;;10.07;7.30;;;;;;;;;;5081263;28;20219;-82
2022/12/31 06:56:55;;;;;;;10.10;7.60;;;;;;;;;;5078088;28;20628;-81
2022/12/31 06:59:29;;;;;;;8.47;7.00;;;;;;;;;;5083445;28;20200;-82
2022/12/31 07:02:46;;;;;;;8.77;7.53;;;;;;;;;;5113237;28;20207;-81
2022/12/31 07:05:28;;;;;;;9.67;8.00;;;;;;;;;;4993348;28;20223;-82
2022/12/31 07:08:04;;;;;;;11.67;10.47;;;;;;;;;;5009904;28;20239;-81
2022/12/31 07:10:37;;;;;;;12.67;10.60;;;;;;;;;;5063003;28;20203;-81
2022/12/31 07:13:14;;;;;;;10.97;9.93;;;;;;;;;;5101300;28;20199;-84
2022/12/31 07:15:54;;;;;;;12.57;10.30;;;;;;;;;;5091822;28;20203;-81
2022/12/31 07:18:29;;;;;;;10.73;9.60;;;;;;;;;;5086855;28;20201;-83
2022/12/31 07:20:56;;;;;;;13.53;11.23;;;;;;;;;;5082613;28;20212;-81
2022/12/31 07:23:24;;;;;;;13.40;10.47;;;;;;;;;;5094499;28;20257;-81
2022/12/31 07:25:56;;;;;;;12.67;10.37;;;;;;;;;;5092521;28;20196;-82
2022/12/31 07:28:37;;;;;;;13.27;11.63;;;;;;;;;;5092170;28;20286;-81
2022/12/31 07:31:08;;;;;;;12.97;10.70;;;;;;;;;;5087198;28;20211;-81
2022/12/31 07:33:44;;;;;;;11.63;9.97;;;;;;;;;;5093611;28;20210;-84
2022/12/31 07:36:19;;;;;;;10.63;9.53;;;;;;;;;;5105218;28;20265;-81
2022/12/31 07:38:51;;;;;;;15.27;11.93;;;;;;;;;;5092881;28;20773;-81
2022/12/31 07:41:23;;;;;;;15.10;13.13;;;;;;;;;;5109109;28;20226;-81
2022/12/31 07:43:56;;;;;;;18.90;16.53;;;;;;;;;;5087290;28;20202;-82
2022/12/31 07:46:33;;;;;;;18.80;14.07;;;;;;;;;;5079175;28;20658;-81
2022/12/31 07:49:01;;;;;;;17.03;13.60;;;;;;;;;;5090889;28;20200;-82
2022/12/31 07:51:28;;;;;;;17.50;14.20;;;;;;;;;;5099386;28;20639;-81
2022/12/31 07:53:55;;;;;;;15.73;10.70;;;;;;;;;;5094556;28;20200;-81
2022/12/31 07:56:22;;;;;;;9.93;7.83;;;;;;;;;;5090007;28;20742;-81
2022/12/31 07:58:57;;;;;;;10.00;6.27;;;;;;;;;;5092061;28;20647;-81
2022/12/31 08:01:33;;;;;;;6.40;5.80;;;;;;;;;;5087269;28;20297;-81
2022/12/31 08:04:07;;;;;;;8.20;7.27;;;;;;;;;;5090312;28;20314;-81
2022/12/31 08:06:40;;;;;;;9.63;8.07;;;;;;;;;;5091093;28;20208;-81
2022/12/31 08:09:18;;;;;;;6.63;5.63;;;;;;;;;;5091587;28;20261;-82
2022/12/31 08:11:49;;;;;;;11.17;6.30;;;;;;;;;;5082157;28;20195;-81
2022/12/31 08:14:17;;;;;;;6.10;5.17;;;;;;;;;;5112365;28;20210;-81
2022/12/31 08:16:46;;;;;;;5.70;5.10;;;;;;;;;;5088553;28;20205;-80
2022/12/31 08:19:20;;;;;;;5.83;5.33;;;;;;;;;;5083984;28;20671;-81
2022/12/31 08:21:56;;;;;;;6.50;4.90;;;;;;;;;;5091456;28;20220;-80
2022/12/31 08:24:28;;;;;;;5.27;4.77;;;;;;;;;;5092506;28;20203;-81
2022/12/31 08:27:00;;;;;;;6.30;3.70;;;;;;;;;;5111300;28;20282;-80
2022/12/31 08:29:34;;;;;;;5.73;3.93;;;;;;;;;;5097872;28;20215;-81
2022/12/31 08:32:09;;;;;;;5.03;4.53;;;;;;;;;;5101481;28;20499;-81
2022/12/31 08:34:39;;;;;;;4.50;4.07;;;;;;;;;;5077704;28;20734;-82
2022/12/31 08:37:11;;;;;;;4.57;4.17;;;;;;;;;;5091664;28;20200;-81
2022/12/31 08:39:56;;;;;;;5.33;4.07;;;;;;;;;;5090250;28;20265;-82
2022/12/31 08:42:29;;;;;;;4.10;3.73;;;;;;;;;;5090974;28;20215;-81
2022/12/31 08:45:03;;;;;;;3.50;3.20;;;;;;;;;;5090908;28;20257;-81
2022/12/31 08:47:40;;;;;;;3.37;3.13;;;;;;;;;;5091096;28;20207;-81
2022/12/31 08:50:14;;;;;;;4.97;3.20;;;;;;;;;;5091399;28;20214;-81
2022/12/31 08:52:41;;;;;;;4.13;3.60;;;;;;;;;;5077953;28;20197;-81
2022/12/31 08:55:13;;;;;;;4.60;3.50;;;;;;;;;;5091235;28;20294;-82
2022/12/31 08:57:42;;;;;;;4.30;3.90;;;;;;;;;;5099137;28;20633;-81
2022/12/31 09:00:13;;;;;;;4.93;3.70;;;;;;;;;;5107625;28;20709;-81
2022/12/31 09:03:12;;;;;;;6.00;3.60;;;;;;;;;;5105246;28;20196;-81
2022/12/31 09:05:52;;;;;;;3.67;3.37;;;;;;;;;;5090540;28;20220;-82
2022/12/31 09:08:28;;;;;;;4.00;3.23;;;;;;;;;;5091039;28;20235;-81
2022/12/31 09:11:00;;;;;;;3.90;3.60;;;;;;;;;;5097583;28;20203;-80
2022/12/31 09:13:33;;;;;;;3.80;3.37;;;;;;;;;;5097901;28;20196;-80
2022/12/31 09:16:07;;;;;;;6.10;3.60;;;;;;;;;;5110816;28;20206;-81
2022/12/31 09:18:39;;;;;;;3.73;3.33;;;;;;;;;;5097612;28;20207;-81
2022/12/31 09:21:08;;;;;;;4.60;3.70;;;;;;;;;;5110119;28;20609;-81
2022/12/31 09:23:36;;;;;;;2.90;2.60;;;;;;;;;;5109957;28;20214;-81
2022/12/31 09:26:10;;;;;;;3.07;2.70;;;;;;;;;;5110559;28;20258;-81
2022/12/31 09:28:44;;;;;;;3.87;3.47;;;;;;;;;;5110939;28;20198;-81
2022/12/31 09:31:14;;;;;;;4.80;2.90;;;;;;;;;;5083620;28;20283;-81
2022/12/31 09:33:50;;;;;;;4.03;3.10;;;;;;;;;;5110815;28;20198;-82
2022/12/31 09:36:19;;;;;;;3.70;3.40;;;;;;;;;;5097779;28;20287;-81
2022/12/31 09:38:52;;;;;;;3.40;3.10;;;;;;;;;;5089732;28;20677;-80
2022/12/31 09:41:37;;;;;;;3.10;2.90;;;;;;;;;;5092313;28;20229;-81
2022/12/31 09:44:45;;;;;;;4.50;4.10;;;;;;;;;;5097293;28;20208;-81
2022/12/31 09:47:59;;;;;;;12.23;7.40;;;;;;;;;;5110523;28;20724;-82
2022/12/31 09:50:42;;;;;;;7.63;6.20;;;;;;;;;;5108118;28;20210;-81
2022/12/31 09:53:28;;;;;;;8.07;6.67;;;;;;;;;;5076849;28;20207;-81
2022/12/31 09:55:58;;;;;;;11.77;7.73;;;;;;;;;;5088455;28;20227;-81
2022/12/31 09:58:35;;;;;;;9.43;6.57;;;;;;;;;;5089371;28;20212;-81
2022/12/31 10:01:16;;;;;;;7.70;6.90;;;;;;;;;;5089385;28;20231;-80
2022/12/31 10:04:16;;;;;;;8.97;7.67;;;;;;;;;;5089816;28;20681;-81
2022/12/31 10:06:52;;;;;;;16.13;13.07;;;;;;;;;;5069665;28;20208;-80
2022/12/31 10:09:31;;;;;;;7.83;7.03;;;;;;;;;;5069945;28;20192;-81
2022/12/31 10:12:06;;;;;;;10.13;7.00;;;;;;;;;;5064656;28;20639;-80
2022/12/31 10:14:47;;;;;;;7.90;7.03;;;;;;;;;;5077897;28;20204;-82
2022/12/31 10:17:23;;;;;;;15.07;11.93;;;;;;;;;;5088706;28;20257;-81
2022/12/31 10:20:20;;;;;;;13.63;11.90;;;;;;;;;;5089514;28;20282;-81
2022/12/31 10:23:22;;;;;;;13.87;12.33;;;;;;;;;;5064207;28;20282;-80
2022/12/31 10:26:13;;;;;;;15.27;13.13;;;;;;;;;;5110157;28;20252;-80
2022/12/31 10:28:49;;;;;;;19.60;16.33;;;;;;;;;;5109597;28;20249;-81
2022/12/31 10:31:17;;;;;;;16.40;14.37;;;;;;;;;;5095022;28;20249;-81
2022/12/31 10:33:49;;;;;;;14.93;13.33;;;;;;;;;;5088849;28;20212;-80
2022/12/31 10:36:20;;;;;;;13.30;11.40;;;;;;;;;;5063419;28;20230;-80
2022/12/31 10:39:01;;;;;;;21.10;17.20;;;;;;;;;;5093641;28;20292;-80
2022/12/31 10:41:55;;;;;;;17.17;15.40;;;;;;;;;;5093609;28;20223;-81
2022/12/31 10:44:48;;;;;;;16.40;12.40;;;;;;;;;;5075724;28;20345;-81
2022/12/31 10:47:45;;;;;;;13.87;12.27;;;;;;;;;;5077765;28;20675;-81
2022/12/31 10:51:02;;;;;;;14.17;11.43;;;;;;;;;;5062958;28;20200;-81
2022/12/31 10:54:01;;;;;;;13.60;10.43;;;;;;;;;;4990065;28;20218;-81
2022/12/31 10:57:05;;;;;;;11.70;9.40;;;;;;;;;;5090381;28;20205;-80
2022/12/31 11:00:02;;;;;;;23.50;14.00;;;;;;;;;;5086677;28;20199;-81
2022/12/31 11:03:06;;;;;;;15.10;11.80;;;;;;;;;;5112476;28;20649;-80
2022/12/31 11:05:56;;;;;;;11.90;10.30;;;;;;;;;;5096482;28;20615;-80
2022/12/31 11:08:45;;;;;;;14.40;11.63;;;;;;;;;;5093342;28;20203;-81
2022/12/31 11:11:21;;;;;;;14.77;12.20;;;;;;;;;;5072784;28;20205;-81
2022/12/31 11:14:09;;;;;;;12.47;11.37;;;;;;;;;;5108421;28;20698;-81
2022/12/31 11:16:53;;;;;;;11.03;7.83;;;;;;;;;;5112502;28;20642;-81
2022/12/31 11:19:26;;;;;;;5.87;4.83;;;;;;;;;;5093180;28;20212;-81
2022/12/31 11:22:09;;;;;;;6.30;5.30;;;;;;;;;;5097068;28;20220;-81
2022/12/31 11:24:44;;;;;;;8.57;5.13;;;;;;;;;;5113514;28;20207;-81
2022/12/31 11:27:21;;;;;;;5.60;4.53;;;;;;;;;;5105640;28;20223;-80
2022/12/31 11:30:07;;;;;;;3.80;3.50;;;;;;;;;;5107788;28;20196;-81
2022/12/31 11:32:44;;;;;;;4.10;3.80;;;;;;;;;;5089549;28;20204;-81
2022/12/31 11:35:28;;;;;;;3.43;3.13;;;;;;;;;;5092422;28;20758;-81
2022/12/31 11:38:01;;;;;;;12.53;5.97;;;;;;;;;;5078004;28;20204;-80
2022/12/31 11:40:37;;;;;;;4.90;4.33;;;;;;;;;;5084079;28;20207;-83
2022/12/31 11:43:13;;;;;;;6.90;6.23;;;;;;;;;;5096187;28;20264;-81
2022/12/31 11:46:04;;;;;;;11.00;6.37;;;;;;;;;;5072982;28;20203;-81
2022/12/31 11:48:39;;;;;;;9.50;7.80;;;;;;;;;;5069371;28;20255;-81
2022/12/31 11:51:36;;;;;;;4.83;3.60;;;;;;;;;;5086821;28;20216;-80
2022/12/31 11:54:17;;;;;;;5.27;4.37;;;;;;;;;;5076356;28;20210;-80
2022/12/31 11:56:50;;;;;;;4.60;3.73;;;;;;;;;;5083165;28;20205;-80
2022/12/31 11:59:16;;;;;;;3.27;3.03;;;;;;;;;;5081605;28;20200;-80
2022/12/31 12:01:52;;;;;;;9.60;8.70;;;;;;;;;;5091759;28;20613;-81
2022/12/31 12:04:19;;;;;;;6.10;5.43;;;;;;;;;;5106503;28;20694;-81
2022/12/31 12:06:46;;;;;;;6.00;4.63;;;;;;;;;;5111973;28;20207;-81
2022/12/31 12:09:16;;;;;;;8.50;6.87;;;;;;;;;;5105803;28;20204;-80
2022/12/31 12:11:44;;;;;;;12.13;9.20;;;;;;;;;;5087336;28;20678;-81
2022/12/31 12:14:21;;;;;;;18.63;12.67;;;;;;;;;;5112591;28;20195;-80
2022/12/31 12:16:54;;;;;;;40.30;26.20;;;;;;;;;;5078418;28;20200;-80
2022/12/31 12:19:25;;;;;;;24.00;15.90;;;;;;;;;;5045279;28;20208;-81
2022/12/31 12:21:52;;;;;;;69.93;43.43;;;;;;;;;;5091111;28;20220;-80
2022/12/31 12:24:22;;;;;;;36.57;22.53;;;;;;;;;;5091683;28;20232;-80
2022/12/31 12:26:49;;;;;;;28.87;21.23;;;;;;;;;;5090958;28;20678;-82
2022/12/31 12:29:22;;;;;;;27.77;18.87;;;;;;;;;;5091477;28;20967;-82
2022/12/31 12:31:58;;;;;;;41.43;27.37;;;;;;;;;;5091625;28;20206;-80
2022/12/31 12:34:27;;;;;;;17.10;14.23;;;;;;;;;;5073296;28;20295;-81
2022/12/31 12:36:55;;;;;;;21.90;16.97;;;;;;;;;;5053239;28;20202;-80
2022/12/31 12:39:23;;;;;;;13.33;11.77;;;;;;;;;;5111797;28;20210;-80
2022/12/31 12:42:02;;;;;;;20.50;15.10;;;;;;;;;;5111324;28;20237;-80
2022/12/31 12:44:30;;;;;;;21.30;17.70;;;;;;;;;;5097429;28;20289;-80
2022/12/31 12:46:59;;;;;;;17.30;11.63;;;;;;;;;;5111523;28;20257;-79
2022/12/31 12:49:27;;;;;;;14.70;13.20;;;;;;;;;;5080002;28;20218;-80
2022/12/31 12:52:32;;;;;;;15.93;14.27;;;;;;;;;;5110653;28;20213;-81
2022/12/31 12:55:08;;;;;;;8.93;7.47;;;;;;;;;;5086217;28;20212;-80
2022/12/31 12:57:41;;;;;;;8.83;7.93;;;;;;;;;;5105748;28;20196;-80
2022/12/31 13:00:19;;;;;;;8.97;8.07;;;;;;;;;;5103932;28;20227;-80
2022/12/31 13:03:12;;;;;;;8.90;8.00;;;;;;;;;;5073013;28;20215;-80
2022/12/31 13:05:52;;;;;;;13.87;10.77;;;;;;;;;;5090641;28;20276;-79
2022/12/31 13:08:28;;;;;;;16.43;11.37;;;;;;;;;;5110969;28;20203;-80
2022/12/31 13:11:14;;;;;;;16.73;12.67;;;;;;;;;;5077004;28;20198;-80
2022/12/31 13:13:46;;;;;;;8.77;7.23;;;;;;;;;;5088861;28;20210;-81
2022/12/31 13:16:21;;;;;;;6.67;5.97;;;;;;;;;;5109477;28;20260;-81
2022/12/31 13:18:55;;;;;;;10.53;7.73;;;;;;;;;;5082365;28;20197;-80
2022/12/31 13:21:35;;;;;;;10.17;7.40;;;;;;;;;;5085583;28;23449;-80
2022/12/31 13:24:07;;;;;;;18.73;14.40;;;;;;;;;;5086976;28;20200;-80
2022/12/31 13:26:39;;;;;;;10.40;8.43;;;;;;;;;;5090186;28;20204;-80
2022/12/31 13:29:13;;;;;;;22.33;15.90;;;;;;;;;;5091064;28;20647;-80
2022/12/31 13:31:40;;;;;;;23.20;13.77;;;;;;;;;;5093645;28;20264;-80
2022/12/31 13:34:14;;;;;;;21.60;14.87;;;;;;;;;;5110842;28;20274;-80
2022/12/31 13:36:42;;;;;;;18.53;14.63;;;;;;;;;;5092765;28;20202;-80
2022/12/31 13:39:15;;;;;;;23.37;17.33;;;;;;;;;;5066017;28;20207;-80
2022/12/31 13:41:45;;;;;;;30.67;23.47;;;;;;;;;;5092388;28;20227;-80
2022/12/31 13:44:16;;;;;;;22.87;14.87;;;;;;;;;;5110509;28;20743;-80
2022/12/31 13:46:47;;;;;;;14.97;13.47;;;;;;;;;;5092472;28;20754;-81
2022/12/31 13:49:22;;;;;;;16.10;12.77;;;;;;;;;;5104539;28;20681;-80
2022/12/31 13:51:51;;;;;;;24.23;20.57;;;;;;;;;;5090096;28;20264;-82
2022/12/31 13:54:27;;;;;;;12.40;9.70;;;;;;;;;;5075608;28;20215;-80
2022/12/31 13:56:58;;;;;;;17.10;14.07;;;;;;;;;;5099832;28;20588;-80
2022/12/31 13:59:29;;;;;;;12.70;11.03;;;;;;;;;;5092510;28;20208;-79
2022/12/31 14:01:59;;;;;;;17.60;14.37;;;;;;;;;;5109644;28;20223;-80
2022/12/31 14:04:31;;;;;;;23.37;17.03;;;;;;;;;;5110485;28;20322;-80
2022/12/31 14:07:01;;;;;;;21.33;12.10;;;;;;;;;;5099561;28;20687;-81
2022/12/31 14:09:31;;;;;;;19.13;16.93;;;;;;;;;;5093612;28;20205;-80
2022/12/31 14:12:24;;;;;;;23.73;19.53;;;;;;;;;;5076021;28;20207;-80
2022/12/31 14:14:59;;;;;;;22.70;19.37;;;;;;;;;;5093950;28;20297;-80
2022/12/31 14:17:31;;;;;;;40.43;33.10;;;;;;;;;;5093578;28;20200;-80
2022/12/31 14:20:09;;;;;;;45.90;34.37;;;;;;;;;;5093492;28;20821;-80
2022/12/31 14:22:41;;;;;;;20.30;16.03;;;;;;;;;;5075698;28;20223;-79
2022/12/31 14:25:17;;;;;;;24.50;18.83;;;;;;;;;;5075268;28;20222;-80
2022/12/31 14:27:45;;;;;;;19.97;17.80;;;;;;;;;;5059408;28;20200;-80
2022/12/31 14:30:17;;;;;;;22.97;18.43;;;;;;;;;;5109209;28;20207;-79
2022/12/31 14:33:18;;;;;;;24.23;18.03;;;;;;;;;;5103768;28;20203;-80
2022/12/31 14:36:05;;;;;;;16.23;13.50;;;;;;;;;;5061689;28;20193;-80
2022/12/31 14:38:43;;;;;;;28.73;20.17;;;;;;;;;;5091416;28;20265;-80
2022/12/31 14:41:25;;;;;;;45.20;31.07;;;;;;;;;;5075574;28;20220;-80
2022/12/31 14:44:02;;;;;;;28.00;19.50;;;;;;;;;;5067815;28;20299;-80
2022/12/31 14:46:33;;;;;;;26.83;18.97;;;;;;;;;;5059356;28;20208;-81
2022/12/31 14:49:10;;;;;;;22.70;17.50;;;;;;;;;;5093075;28;20205;-80
2022/12/31 14:51:38;;;;;;;24.17;19.13;;;;;;;;;;5092746;28;20204;-80
2022/12/31 14:54:05;;;;;;;23.67;18.57;;;;;;;;;;5093276;28;20203;-80
2022/12/31 14:56:38;;;;;;;36.00;28.47;;;;;;;;;;5091363;28;20201;-80
2022/12/31 14:59:24;;;;;;;33.57;25.07;;;;;;;;;;5078400;28;20208;-81
2022/12/31 15:01:55;;;;;;;34.60;26.87;;;;;;;;;;5109422;28;20231;-81
2022/12/31 15:07:19;;;;;;;37.93;28.73;;;;;;;;;;5087671;28;20212;-80
2022/12/31 15:09:56;;;;;;;40.57;31.37;;;;;;;;;;5058120;28;20220;-80
2022/12/31 15:12:34;;;;;;;48.13;34.60;;;;;;;;;;5084279;28;20203;-80